createdAt,value
2023-11-01T00:00:36.986Z,81.6
2023-11-01T00:01:38.155Z,81.6
2023-11-01T00:02:39.460Z,81.6
2023-11-01T00:03:41.338Z,81.6
2023-11-01T00:04:42.699Z,81.6
2023-11-01T00:05:43.924Z,81.6
2023-11-01T00:06:45.304Z,81.6
2023-11-01T00:07:46.430Z,81.6
2023-11-01T00:08:47.600Z,81.6
2023-11-01T00:09:48.760Z,81.6
2023-11-01T00:10:49.932Z,81.6
2023-11-01T00:11:51.100Z,81.6
2023-11-01T00:12:52.261Z,81.6
2023-11-01T00:13:53.427Z,81.6
2023-11-01T00:14:54.603Z,81.6
2023-11-01T00:15:56.036Z,81.6
2023-11-01T00:16:57.431Z,81.7
2023-11-01T00:17:58.731Z,81.7
2023-11-01T00:18:59.912Z,81.7
2023-11-01T00:20:01.137Z,81.7
2023-11-01T00:21:02.286Z,81.7
2023-11-01T00:22:03.457Z,81.7
2023-11-01T00:23:04.672Z,81.7
2023-11-01T00:24:05.925Z,81.7
2023-11-01T00:25:07.093Z,81.7
2023-11-01T00:26:08.349Z,81.7
2023-11-01T00:27:09.507Z,81.7
2023-11-01T00:28:10.673Z,81.7
2023-11-01T00:29:11.877Z,81.6
2023-11-01T00:30:13.020Z,81.6
2023-11-01T00:31:14.186Z,81.6
2023-11-01T00:32:15.548Z,81.6
2023-11-01T00:33:16.863Z,81.6
2023-11-01T00:34:18.051Z,81.6
2023-11-01T00:35:19.450Z,81.6
2023-11-01T00:36:20.584Z,81.6
2023-11-01T00:37:21.780Z,81.6
2023-11-01T00:38:23.155Z,81.6
2023-11-01T00:39:24.323Z,81.6
2023-11-01T00:40:25.485Z,81.6
2023-11-01T00:41:26.719Z,81.6
2023-11-01T00:42:27.880Z,81.6
2023-11-01T00:43:29.138Z,81.6
2023-11-01T00:44:30.401Z,81.6
2023-11-01T00:45:31.587Z,81.6
2023-11-01T00:46:32.777Z,81.6
2023-11-01T00:47:34.142Z,81.6
2023-11-01T00:48:35.352Z,81.6
2023-11-01T00:49:36.528Z,81.6
2023-11-01T00:50:37.775Z,81.7
2023-11-01T00:51:38.910Z,81.7
2023-11-01T00:52:40.077Z,81.7
2023-11-01T00:53:41.351Z,81.7
2023-11-01T00:54:42.503Z,81.7
2023-11-01T00:55:43.670Z,81.7
2023-11-01T00:56:44.864Z,81.7
2023-11-01T00:57:46.054Z,81.8
2023-11-01T00:58:47.224Z,81.8
2023-11-01T00:59:48.414Z,81.8
2023-11-01T01:00:49.760Z,81.8
2023-11-01T01:01:50.927Z,81.8
2023-11-01T01:02:52.551Z,81.8
2023-11-01T01:03:54.043Z,81.8
2023-11-01T01:04:55.247Z,81.8
2023-11-01T01:05:56.445Z,81.8
2023-11-01T01:06:57.582Z,81.8
2023-11-01T01:07:58.790Z,81.8
2023-11-01T01:08:59.950Z,81.8
2023-11-01T01:10:01.123Z,81.8
2023-11-01T01:11:02.293Z,81.8
2023-11-01T01:12:03.450Z,81.8
2023-11-01T01:13:04.616Z,81.9
2023-11-01T01:14:05.783Z,81.9
2023-11-01T01:15:06.956Z,81.9
2023-11-01T01:16:08.181Z,81.9
2023-11-01T01:17:09.413Z,81.9
2023-11-01T01:18:10.666Z,81.9
2023-11-01T01:19:11.925Z,81.9
2023-11-01T01:20:13.185Z,81.9
2023-11-01T01:21:14.349Z,81.9
2023-11-01T01:22:15.487Z,81.9
2023-11-01T01:23:16.800Z,81.9
2023-11-01T01:24:18.000Z,81.9
2023-11-01T01:25:19.392Z,81.9
2023-11-01T01:26:20.651Z,81.9
2023-11-01T01:27:21.821Z,81.9
2023-11-01T01:28:22.974Z,81.9
2023-11-01T01:29:24.243Z,81.9
2023-11-01T01:30:25.435Z,81.9
2023-11-01T01:31:26.640Z,81.9
2023-11-01T01:32:27.898Z,81.9
2023-11-01T01:33:29.056Z,81.9
2023-11-01T01:34:30.234Z,82
2023-11-01T01:35:31.602Z,82
2023-11-01T01:36:32.782Z,82
2023-11-01T01:37:33.920Z,82
2023-11-01T01:38:35.182Z,82
2023-11-01T01:39:36.488Z,82
2023-11-01T01:40:37.626Z,82
2023-11-01T01:41:38.821Z,82
2023-11-01T01:42:39.985Z,82
2023-11-01T01:43:41.541Z,82
2023-11-01T01:44:42.864Z,82.1
2023-11-01T01:45:44.113Z,82.1
2023-11-01T01:46:45.310Z,82.1
2023-11-01T01:47:46.666Z,82.1
2023-11-01T01:48:47.900Z,82.1
2023-11-01T01:49:49.058Z,82.1
2023-11-01T01:50:50.259Z,82.2
2023-11-01T01:51:51.454Z,82.2
2023-11-01T01:52:52.588Z,82.2
2023-11-01T01:53:53.843Z,82.2
2023-11-01T01:54:55.082Z,82.2
2023-11-01T01:55:56.231Z,82.2
2023-11-01T01:56:57.398Z,82.2
2023-11-01T01:57:58.567Z,82.3
2023-11-01T01:58:59.745Z,82.3
2023-11-01T02:00:00.957Z,82.3
2023-11-01T02:01:02.183Z,82.3
2023-11-01T02:02:03.367Z,82.3
2023-11-01T02:03:04.936Z,82.3
2023-11-01T02:04:06.124Z,82.3
2023-11-01T02:05:07.293Z,82.4
2023-11-01T02:06:08.456Z,82.4
2023-11-01T02:07:09.647Z,82.4
2023-11-01T02:08:10.872Z,82.4
2023-11-01T02:09:12.009Z,82.4
2023-11-01T02:10:13.211Z,82.4
2023-11-01T02:11:14.394Z,82.4
2023-11-01T02:12:15.575Z,82.4
2023-11-01T02:13:16.779Z,82.5
2023-11-01T02:14:18.027Z,82.5
2023-11-01T02:15:19.214Z,82.5
2023-11-01T02:16:20.403Z,82.5
2023-11-01T02:17:21.595Z,82.5
2023-11-01T02:18:22.777Z,82.5
2023-11-01T02:19:23.931Z,82.6
2023-11-01T02:20:25.170Z,82.6
2023-11-01T02:21:29.360Z,82.6
2023-11-01T02:22:33.579Z,82.6
2023-11-01T02:23:35.057Z,82.6
2023-11-01T02:24:45.905Z,82.6
2023-11-01T02:25:47.070Z,82.6
2023-11-01T02:26:48.228Z,82.6
2023-11-01T02:27:49.390Z,82.6
2023-11-01T02:28:50.563Z,82.6
2023-11-01T02:29:51.723Z,82.6
2023-11-01T02:30:52.902Z,82.6
2023-11-01T02:31:54.072Z,82.6
2023-11-01T02:32:55.327Z,82.6
2023-11-01T02:33:56.500Z,82.6
2023-11-01T02:34:57.657Z,82.6
2023-11-01T02:35:58.821Z,82.6
2023-11-01T02:36:59.981Z,82.6
2023-11-01T02:38:01.180Z,82.6
2023-11-01T02:39:02.319Z,82.6
2023-11-01T02:40:03.488Z,82.6
2023-11-01T02:41:04.667Z,82.6
2023-11-01T02:42:05.830Z,82.6
2023-11-01T02:43:06.993Z,82.6
2023-11-01T02:44:08.164Z,82.6
2023-11-01T02:45:09.330Z,82.6
2023-11-01T02:46:10.545Z,82.6
2023-11-01T02:47:11.866Z,82.6
2023-11-01T02:48:13.078Z,82.6
2023-11-01T02:49:14.239Z,82.6
2023-11-01T02:50:15.798Z,82.7
2023-11-01T02:51:16.998Z,82.7
2023-11-01T02:52:18.162Z,82.7
2023-11-01T02:53:19.453Z,82.7
2023-11-01T02:54:20.633Z,82.7
2023-11-01T02:55:21.801Z,82.7
2023-11-01T02:56:23.029Z,82.7
2023-11-01T02:57:24.166Z,82.7
2023-11-01T02:58:25.584Z,82.7
2023-11-01T02:59:26.809Z,82.7
2023-11-01T03:00:27.937Z,82.7
2023-11-01T03:01:29.162Z,82.7
2023-11-01T03:02:30.503Z,82.7
2023-11-01T03:03:31.782Z,82.7
2023-11-01T03:04:32.941Z,82.7
2023-11-01T03:05:34.379Z,82.7
2023-11-01T03:06:35.632Z,82.7
2023-11-01T03:07:36.780Z,82.7
2023-11-01T03:08:37.995Z,82.7
2023-11-01T03:09:39.148Z,82.7
2023-11-01T03:10:40.330Z,82.7
2023-11-01T03:11:41.593Z,82.7
2023-11-01T03:12:42.766Z,82.7
2023-11-01T03:13:43.918Z,82.7
2023-11-01T03:14:45.084Z,82.7
2023-11-01T03:15:46.262Z,82.7
2023-11-01T03:16:47.422Z,82.7
2023-11-01T03:17:48.914Z,82.7
2023-11-01T03:18:50.188Z,82.7
2023-11-01T03:19:51.357Z,82.7
2023-11-01T03:20:52.531Z,82.7
2023-11-01T03:21:57.279Z,82.7
2023-11-01T03:22:58.436Z,82.7
2023-11-01T03:23:59.625Z,82.7
2023-11-01T03:25:00.767Z,82.7
2023-11-01T03:26:01.932Z,82.7
2023-11-01T03:27:03.107Z,82.7
2023-11-01T03:28:04.335Z,82.7
2023-11-01T03:29:05.569Z,82.7
2023-11-01T03:30:06.741Z,82.7
2023-11-01T03:31:08.009Z,82.7
2023-11-01T03:32:09.172Z,82.7
2023-11-01T03:33:10.560Z,82.7
2023-11-01T03:34:11.713Z,82.7
2023-11-01T03:35:13.060Z,82.7
2023-11-01T03:36:14.230Z,82.6
2023-11-01T03:37:15.398Z,82.6
2023-11-01T03:38:16.732Z,82.6
2023-11-01T03:39:20.880Z,82.6
2023-11-01T03:40:22.019Z,82.6
2023-11-01T03:41:23.196Z,82.6
2023-11-01T03:42:24.373Z,82.5
2023-11-01T03:43:25.534Z,82.5
2023-11-01T03:44:26.729Z,82.5
2023-11-01T03:45:27.923Z,82.5
2023-11-01T03:46:29.198Z,82.5
2023-11-01T03:47:30.531Z,82.4
2023-11-01T03:48:32.001Z,82.4
2023-11-01T03:49:33.192Z,82.4
2023-11-01T03:50:34.432Z,82.4
2023-11-01T03:51:35.599Z,82.4
2023-11-01T03:52:36.760Z,82.4
2023-11-01T03:53:38.199Z,82.4
2023-11-01T03:54:39.472Z,82.3
2023-11-01T03:55:40.616Z,82.3
2023-11-01T03:56:41.884Z,82.3
2023-11-01T03:57:43.045Z,82.3
2023-11-01T03:58:44.295Z,82.3
2023-11-01T03:59:45.537Z,82.3
2023-11-01T04:00:46.706Z,82.3
2023-11-01T04:01:47.996Z,82.3
2023-11-01T04:02:49.436Z,82.3
2023-11-01T04:03:50.927Z,82.3
2023-11-01T04:04:52.161Z,82.3
2023-11-01T04:05:53.436Z,82.3
2023-11-01T04:06:54.609Z,82.3
2023-11-01T04:07:55.794Z,82.3
2023-11-01T04:08:56.958Z,82.3
2023-11-01T04:09:58.145Z,82.3
2023-11-01T04:10:59.287Z,82.3
2023-11-01T04:12:00.462Z,82.3
2023-11-01T04:13:01.628Z,82.3
2023-11-01T04:14:02.791Z,82.3
2023-11-01T04:15:03.960Z,82.3
2023-11-01T04:16:05.279Z,82.3
2023-11-01T04:17:06.463Z,82.3
2023-11-01T04:18:07.842Z,82.3
2023-11-01T04:19:09.102Z,82.3
2023-11-01T04:20:10.377Z,82.3
2023-11-01T04:21:11.528Z,82.4
2023-11-01T04:22:12.690Z,82.4
2023-11-01T04:23:13.946Z,82.4
2023-11-01T04:24:15.082Z,82.4
2023-11-01T04:25:16.282Z,82.4
2023-11-01T04:26:17.495Z,82.4
2023-11-01T04:27:18.664Z,82.4
2023-11-01T04:28:19.867Z,82.5
2023-11-01T04:29:21.070Z,82.5
2023-11-01T04:30:22.234Z,82.5
2023-11-01T04:31:23.405Z,82.5
2023-11-01T04:32:24.590Z,82.5
2023-11-01T04:33:26.032Z,82.5
2023-11-01T04:34:27.323Z,82.6
2023-11-01T04:35:31.216Z,82.6
2023-11-01T04:36:32.379Z,82.6
2023-11-01T04:37:33.539Z,82.6
2023-11-01T04:38:34.904Z,82.6
2023-11-01T04:39:36.075Z,82.6
2023-11-01T04:40:37.473Z,82.6
2023-11-01T04:41:38.755Z,82.6
2023-11-01T04:42:39.997Z,82.6
2023-11-01T04:43:41.469Z,82.7
2023-11-01T04:44:42.713Z,82.7
2023-11-01T04:45:43.935Z,82.7
2023-11-01T04:46:45.090Z,82.7
2023-11-01T04:47:47.352Z,82.7
2023-11-01T04:48:48.692Z,82.7
2023-11-01T04:49:49.858Z,82.8
2023-11-01T04:50:52.716Z,82.8
2023-11-01T04:51:54.373Z,82.8
2023-11-01T04:52:55.561Z,82.8
2023-11-01T04:53:56.948Z,82.9
2023-11-01T04:54:58.126Z,82.9
2023-11-01T04:55:59.312Z,82.9
2023-11-01T04:57:00.458Z,82.9
2023-11-01T04:58:04.481Z,82.9
2023-11-01T04:59:05.639Z,83
2023-11-01T05:00:06.820Z,83
2023-11-01T05:01:08.373Z,83
2023-11-01T05:02:12.494Z,83
2023-11-01T05:03:13.973Z,83.1
2023-11-01T05:04:15.187Z,83.1
2023-11-01T05:05:16.466Z,83.1
2023-11-01T05:06:17.623Z,83.1
2023-11-01T05:07:18.793Z,83.1
2023-11-01T05:08:20.124Z,83.1
2023-11-01T05:09:21.360Z,83.1
2023-11-01T05:10:23.072Z,83.2
2023-11-01T05:11:24.462Z,83.2
2023-11-01T05:12:27.978Z,83.2
2023-11-01T05:13:29.141Z,83.2
2023-11-01T05:14:30.344Z,83.2
2023-11-01T05:15:31.572Z,83.2
2023-11-01T05:16:32.823Z,83.2
2023-11-01T05:17:34.166Z,83.2
2023-11-01T05:18:35.466Z,83.2
2023-11-01T05:19:36.667Z,83.2
2023-11-01T05:20:37.845Z,83.2
2023-11-01T05:21:39.013Z,83.2
2023-11-01T05:22:40.184Z,83.2
2023-11-01T05:23:41.529Z,83.2
2023-11-01T05:24:42.718Z,83.2
2023-11-01T05:25:43.917Z,83.2
2023-11-01T05:26:45.219Z,83.2
2023-11-01T05:27:46.476Z,83.2
2023-11-01T05:28:47.629Z,83.2
2023-11-01T05:29:49.035Z,83.3
2023-11-01T05:30:50.271Z,83.3
2023-11-01T05:31:51.528Z,83.3
2023-11-01T05:32:52.897Z,83.3
2023-11-01T05:33:54.062Z,83.3
2023-11-01T05:34:55.285Z,83.3
2023-11-01T05:35:59.109Z,83.3
2023-11-01T05:37:05.982Z,83.3
2023-11-01T05:38:07.116Z,83.3
2023-11-01T05:39:08.284Z,83.4
2023-11-01T05:40:09.447Z,83.4
2023-11-01T05:41:10.641Z,83.4
2023-11-01T05:42:11.975Z,83.4
2023-11-01T05:43:13.115Z,83.4
2023-11-01T05:44:14.278Z,83.4
2023-11-01T05:45:15.457Z,83.4
2023-11-01T05:46:16.645Z,83.4
2023-11-01T05:47:17.838Z,83.4
2023-11-01T05:48:19.070Z,83.4
2023-11-01T05:49:20.224Z,83.4
2023-11-01T05:50:23.751Z,83.4
2023-11-01T05:51:24.920Z,83.4
2023-11-01T05:52:26.089Z,83.4
2023-11-01T05:53:27.264Z,83.5
2023-11-01T05:54:28.417Z,83.5
2023-11-01T05:56:04.991Z,83.5
2023-11-01T05:57:11.022Z,83.5
2023-11-01T05:58:12.199Z,83.5
2023-11-01T05:59:13.356Z,83.5
2023-11-01T06:00:14.530Z,83.5
2023-11-01T06:01:15.753Z,83.5
2023-11-01T06:02:17.148Z,83.5
2023-11-01T06:03:18.722Z,83.5
2023-11-01T06:04:20.114Z,83.5
2023-11-01T06:05:21.364Z,83.5
2023-11-01T06:06:22.572Z,83.5
2023-11-01T06:07:23.733Z,83.5
2023-11-01T06:08:24.914Z,83.5
2023-11-01T06:09:26.068Z,83.5
2023-11-01T06:10:27.279Z,83.5
2023-11-01T06:11:28.466Z,83.5
2023-11-01T06:12:29.626Z,83.5
2023-11-01T06:13:30.823Z,83.5
2023-11-01T06:14:32.010Z,83.5
2023-11-01T06:15:33.272Z,83.5
2023-11-01T06:16:34.500Z,83.5
2023-11-01T06:17:35.757Z,83.5
2023-11-01T06:18:36.922Z,83.5
2023-11-01T06:19:38.084Z,83.5
2023-11-01T06:20:39.391Z,83.5
2023-11-01T06:21:40.533Z,83.5
2023-11-01T06:22:41.727Z,83.5
2023-11-01T06:23:42.901Z,83.5
2023-11-01T06:24:44.060Z,83.5
2023-11-01T06:25:45.278Z,83.5
2023-11-01T06:26:46.579Z,83.5
2023-11-01T06:27:47.721Z,83.5
2023-11-01T06:28:48.911Z,83.5
2023-11-01T06:29:50.090Z,83.6
2023-11-01T06:30:51.252Z,83.6
2023-11-01T06:31:52.415Z,83.6
2023-11-01T06:33:05.817Z,83.6
2023-11-01T06:34:07.195Z,83.6
2023-11-01T06:35:11.064Z,83.6
2023-11-01T06:36:12.204Z,83.6
2023-11-01T06:37:13.365Z,83.6
2023-11-01T06:38:14.526Z,83.6
2023-11-01T06:39:15.716Z,83.6
2023-11-01T06:40:16.891Z,83.7
2023-11-01T06:41:18.159Z,83.7
2023-11-01T06:42:19.380Z,83.7
2023-11-01T06:43:20.653Z,83.7
2023-11-01T06:44:21.960Z,83.7
2023-11-01T06:45:23.150Z,83.8
2023-11-01T06:46:24.388Z,83.8
2023-11-01T06:47:25.762Z,83.8
2023-11-01T06:48:27.214Z,83.8
2023-11-01T06:49:32.949Z,83.8
2023-11-01T06:50:34.318Z,83.8
2023-11-01T06:51:35.480Z,83.8
2023-11-01T06:52:36.703Z,83.9
2023-11-01T06:53:38.092Z,83.9
2023-11-01T06:54:39.253Z,83.9
2023-11-01T06:55:40.506Z,83.9
2023-11-01T06:56:49.027Z,83.9
2023-11-01T07:11:38.384Z,84.2
2023-11-01T07:12:44.369Z,84.3
2023-11-01T07:19:53.797Z,84.4
2023-11-01T07:20:57.957Z,84.4
2023-11-01T07:22:14.854Z,84.4
2023-11-01T07:23:37.145Z,84.4
2023-11-01T07:24:52.656Z,84.5
2023-11-01T07:26:18.089Z,84.5
2023-11-01T07:27:24.104Z,84.5
2023-11-01T07:28:33.197Z,84.5
2023-11-01T07:29:43.047Z,84.6
2023-11-01T07:31:05.147Z,84.6
2023-11-01T07:32:16.850Z,84.6
2023-11-01T07:33:27.690Z,84.7
2023-11-01T07:34:47.315Z,84.7
2023-11-01T07:36:04.551Z,84.7
2023-11-01T07:37:18.381Z,84.7
2023-11-01T07:38:24.778Z,84.7
2023-11-01T07:39:25.928Z,84.7
2023-11-01T07:40:41.246Z,84.7
2023-11-01T07:42:59.632Z,84.8
2023-11-01T07:44:29.806Z,84.8
2023-11-01T07:45:30.957Z,84.8
2023-11-01T07:46:36.972Z,84.8
2023-11-01T07:47:48.683Z,84.8
2023-11-01T07:48:54.682Z,84.8
2023-11-01T07:49:55.854Z,84.8
2023-11-01T07:51:02.588Z,84.8
2023-11-01T07:52:29.623Z,84.7
2023-11-01T07:53:30.831Z,84.8
2023-11-01T07:54:32.007Z,84.7
2023-11-01T07:55:42.210Z,84.7
2023-11-01T07:56:43.430Z,84.7
2023-11-01T07:57:44.630Z,84.7
2023-11-01T07:58:53.315Z,84.7
2023-11-01T07:59:57.158Z,84.7
2023-11-01T08:00:58.339Z,84.7
2023-11-01T08:02:05.067Z,84.7
2023-11-01T08:03:06.453Z,84.7
2023-11-01T08:04:08.499Z,84.7
2023-11-01T08:05:09.910Z,84.7
2023-11-01T08:06:11.122Z,84.7
2023-11-01T08:07:15.024Z,84.7
2023-11-01T08:08:17.237Z,84.7
2023-11-01T08:09:18.402Z,84.7
2023-11-01T08:10:19.601Z,84.7
2023-11-01T08:11:20.963Z,84.7
2023-11-01T08:12:22.111Z,84.7
2023-11-01T08:13:23.275Z,84.7
2023-11-01T08:14:24.496Z,84.7
2023-11-01T08:15:28.780Z,84.7
2023-11-01T08:16:30.361Z,84.7
2023-11-01T08:17:31.652Z,84.7
2023-11-01T08:18:32.815Z,84.7
2023-11-01T08:19:33.968Z,84.7
2023-11-01T08:20:37.773Z,84.7
2023-11-01T08:21:38.966Z,84.7
2023-11-01T08:22:40.125Z,84.8
2023-11-01T08:23:43.581Z,84.8
2023-11-01T08:24:44.743Z,84.8
2023-11-01T08:25:45.911Z,84.8
2023-11-01T08:26:47.158Z,84.8
2023-11-01T08:28:00.421Z,84.8
2023-11-01T08:29:04.601Z,84.8
2023-11-01T08:30:31.084Z,84.8
2023-11-01T08:31:34.980Z,84.8
2023-11-01T08:33:05.826Z,84.8
2023-11-01T08:35:16.451Z,84.7
2023-11-01T08:37:52.596Z,84.7
2023-11-01T08:39:43.253Z,84.6
2023-11-01T08:42:31.543Z,84.6
2023-11-01T08:44:20.658Z,84.6
2023-11-01T08:45:36.610Z,84.6
2023-11-01T08:46:44.637Z,84.7
2023-11-01T08:47:46.572Z,84.6
2023-11-01T08:49:00.017Z,84.6
2023-11-01T08:51:12.871Z,84.7
2023-11-01T08:52:14.052Z,84.7
2023-11-01T09:07:59.783Z,84.6
2023-11-01T09:09:09.831Z,84.6
2023-11-01T09:10:11.135Z,84.5
2023-11-01T09:11:14.891Z,84.5
2023-11-01T09:12:19.620Z,84.4
2023-11-01T09:13:20.772Z,84.3
2023-11-01T09:14:26.727Z,84.3
2023-11-01T09:15:41.714Z,84.2
2023-11-01T09:16:45.922Z,84.1
2023-11-01T09:18:15.500Z,84.1
2023-11-01T09:20:13.385Z,84
2023-11-01T09:21:18.131Z,83.9
2023-11-01T09:23:57.140Z,83.9
2023-11-01T09:25:11.580Z,83.8
2023-11-01T09:26:21.676Z,83.9
2023-11-01T09:28:47.737Z,83.9
2023-11-01T09:30:38.425Z,83.9
2023-11-01T09:31:39.577Z,83.8
2023-11-01T09:32:48.438Z,83.7
2023-11-01T09:33:52.688Z,83.7
2023-11-01T09:35:48.739Z,83.6
2023-11-01T09:36:50.124Z,83.3
2023-11-01T09:37:51.298Z,83.2
2023-11-01T09:38:58.006Z,83.1
2023-11-01T09:40:06.690Z,83.2
2023-11-01T09:41:10.604Z,83.1
2023-11-01T09:42:20.475Z,82.9
2023-11-01T09:43:31.675Z,83.1
2023-11-01T09:44:32.889Z,83.1
2023-11-01T09:45:37.087Z,83.2
2023-11-01T09:46:40.707Z,83.3
2023-11-01T09:47:45.421Z,83.4
2023-11-01T09:48:49.518Z,83.4
2023-11-01T09:49:50.689Z,83.5
2023-11-01T09:50:56.825Z,83.5
2023-11-01T09:52:01.070Z,83.4
2023-11-01T09:53:05.089Z,83.4
2023-11-01T09:54:13.895Z,83.4
2023-11-01T09:55:22.369Z,83.3
2023-11-01T09:56:23.771Z,83.3
2023-11-01T09:57:25.013Z,83.2
2023-11-01T09:58:26.383Z,83.2
2023-11-01T09:59:27.714Z,83.1
2023-11-01T10:00:28.912Z,83.1
2023-11-01T10:01:30.057Z,83.1
2023-11-01T10:02:31.419Z,83.1
2023-11-01T10:03:32.967Z,83
2023-11-01T10:04:34.266Z,83
2023-11-01T10:06:44.056Z,83
2023-11-01T10:07:53.679Z,82.9
2023-11-01T10:09:02.048Z,82.9
2023-11-01T10:10:03.268Z,82.9
2023-11-01T10:11:12.121Z,82.8
2023-11-01T10:12:16.332Z,82.8
2023-11-01T10:13:19.632Z,82.7
2023-11-01T10:14:40.860Z,82.7
2023-11-01T10:16:00.665Z,82.6
2023-11-01T10:17:15.556Z,82.6
2023-11-01T10:18:19.821Z,82.6
2023-11-01T10:19:20.981Z,82.6
2023-11-01T10:20:22.152Z,82.5
2023-11-01T10:21:23.323Z,82.5
2023-11-01T10:22:24.499Z,82.5
2023-11-01T10:23:28.256Z,82.6
2023-11-01T10:24:29.456Z,82.6
2023-11-01T10:25:33.625Z,82.6
2023-11-01T10:26:42.561Z,82.5
2023-11-01T10:27:43.776Z,82.5
2023-11-01T10:29:02.327Z,82.5
2023-11-01T10:30:09.685Z,82.4
2023-11-01T10:31:13.898Z,82.4
2023-11-01T10:32:22.679Z,82.3
2023-11-01T10:33:30.332Z,82.3
2023-11-01T10:34:34.645Z,82.2
2023-11-01T10:35:46.070Z,82.1
2023-11-01T10:37:03.369Z,82
2023-11-01T10:38:12.620Z,81.9
2023-11-01T10:39:13.973Z,81.8
2023-11-01T10:40:17.514Z,81.1
2023-11-01T10:42:43.714Z,79.9
2023-11-01T10:46:43.583Z,79.9
2023-11-01T10:48:02.462Z,79.9
2023-11-01T10:50:18.998Z,79.5
2023-11-01T10:51:25.850Z,79.2
2023-11-01T10:52:44.801Z,78.9
2023-11-01T10:53:57.763Z,79.3
2023-11-01T10:55:06.397Z,79.5
2023-11-01T10:56:41.284Z,79.8
2023-11-01T10:57:45.154Z,79.9
2023-11-01T10:58:51.294Z,79.9
2023-11-01T11:00:00.016Z,79.9
2023-11-01T11:01:01.470Z,79.8
2023-11-01T11:02:15.415Z,79.8
2023-11-01T11:06:28.769Z,79.6
2023-11-01T11:07:30.084Z,79.5
2023-11-01T11:10:00.816Z,79.3
2023-11-01T11:11:06.786Z,79.3
2023-11-01T11:12:16.599Z,79.2
2023-11-01T11:13:27.743Z,79.1
2023-11-01T11:14:53.801Z,79
2023-11-01T11:16:02.630Z,78.9
2023-11-01T11:17:11.247Z,78.9
2023-11-01T11:18:23.926Z,78.9
2023-11-01T11:19:30.235Z,78.9
2023-11-01T11:23:14.521Z,78.8
2023-11-01T11:24:29.974Z,78.8
2023-11-01T11:25:39.313Z,78.7
2023-11-01T11:28:05.323Z,78.7
2023-11-01T11:31:48.061Z,78.6
2023-11-01T11:33:08.879Z,78.5
2023-11-01T11:37:16.845Z,78.3
2023-11-01T11:38:28.791Z,78.3
2023-11-01T11:39:37.622Z,78.2
2023-11-01T11:40:44.120Z,78.2
2023-11-01T11:41:48.271Z,78.2
2023-11-01T11:42:56.424Z,78.2
2023-11-01T11:44:03.217Z,78.2
2023-11-01T11:45:22.241Z,78.2
2023-11-01T11:46:36.005Z,78.1
2023-11-01T11:47:41.090Z,78.1
2023-11-01T11:49:07.136Z,78.1
2023-11-01T11:50:19.830Z,78.1
2023-11-01T11:51:21.172Z,78.1
2023-11-01T11:52:28.071Z,78.1
2023-11-01T11:53:48.771Z,78.1
2023-11-01T11:54:54.795Z,78.1
2023-11-01T11:56:53.040Z,78.1
2023-11-01T11:57:54.378Z,78.2
2023-11-01T11:59:05.371Z,78.2
2023-11-01T12:00:40.856Z,78.2
2023-11-01T12:02:10.403Z,78.2
2023-11-01T12:03:20.502Z,78.2
2023-11-01T12:04:30.573Z,78.2
2023-11-01T12:05:37.726Z,78.3
2023-11-01T12:07:21.096Z,78.3
2023-11-01T12:08:22.285Z,78.3
2023-11-01T12:09:26.503Z,78.3
2023-11-01T12:10:36.768Z,78.3
2023-11-01T12:11:39.314Z,78.3
2023-11-01T12:13:14.538Z,78.3
2023-11-01T12:14:32.042Z,78.4
2023-11-01T12:15:38.102Z,78.4
2023-11-01T12:17:27.211Z,78.4
2023-11-01T12:18:33.064Z,78.4
2023-11-01T12:20:46.625Z,78.4
2023-11-01T12:22:13.050Z,78.3
2023-11-01T12:23:33.347Z,78.3
2023-11-01T12:24:48.335Z,78.3
2023-11-01T12:25:58.685Z,78.3
2023-11-01T12:27:18.963Z,78.3
2023-11-01T12:28:22.999Z,78.3
2023-11-01T12:29:45.322Z,78.3
2023-11-01T12:31:12.183Z,78.3
2023-11-01T12:32:18.557Z,78.3
2023-11-01T12:33:27.981Z,78.4
2023-11-01T12:34:43.351Z,78.4
2023-11-01T12:35:52.178Z,78.5
2023-11-01T12:36:53.444Z,78.5
2023-11-01T12:39:08.468Z,78.6
2023-11-01T12:40:12.784Z,78.6
2023-11-01T12:41:14.008Z,78.7
2023-11-01T12:43:27.067Z,78.7
2023-11-01T12:44:33.552Z,78.7
2023-11-01T12:45:55.521Z,78.8
2023-11-01T12:47:19.562Z,78.8
2023-11-01T12:48:33.520Z,78.8
2023-11-01T12:49:53.294Z,78.8
2023-11-01T12:51:02.359Z,78.8
2023-11-01T12:52:21.228Z,78.8
2023-11-01T12:53:27.485Z,78.9
2023-11-01T12:57:30.674Z,78.8
2023-11-01T13:02:28.226Z,78.8
2023-11-01T13:05:33.617Z,78.8
2023-11-01T13:06:49.388Z,78.8
2023-11-01T13:07:55.360Z,78.8
2023-11-01T13:09:02.082Z,78.8
2023-11-01T13:12:26.241Z,78.9
2023-11-01T13:14:12.164Z,79
2023-11-01T13:16:57.417Z,79.1
2023-11-01T13:18:10.576Z,79.1
2023-11-01T13:19:35.210Z,79.2
2023-11-01T13:20:43.911Z,79.2
2023-11-01T13:21:53.343Z,79.3
2023-11-01T13:24:09.948Z,79.4
2023-11-01T13:25:11.112Z,79.4
2023-11-01T13:26:22.604Z,79.4
2023-11-01T13:27:53.236Z,79.4
2023-11-01T13:29:03.613Z,79.5
2023-11-01T13:30:30.690Z,79.5
2023-11-01T13:31:31.956Z,79.5
2023-11-01T13:32:49.678Z,79.5
2023-11-01T13:33:53.736Z,79.5
2023-11-01T13:34:54.915Z,79.5
2023-11-01T13:36:07.146Z,79.5
2023-11-01T13:37:14.299Z,79.5
2023-11-01T13:38:21.219Z,79.5
2023-11-01T13:39:42.148Z,79.5
2023-11-01T13:40:51.087Z,79.6
2023-11-01T13:42:19.811Z,79.6
2023-11-01T13:44:55.824Z,79.6
2023-11-01T13:46:15.005Z,79.7
2023-11-01T13:47:26.127Z,79.7
2023-11-01T13:50:04.035Z,79.8
2023-11-01T13:51:08.084Z,79.8
2023-11-01T13:52:46.989Z,79.8
2023-11-01T13:53:53.377Z,79.8
2023-11-01T13:54:54.613Z,79.8
2023-11-01T13:56:23.915Z,79.8
2023-11-01T13:57:25.057Z,79.8
2023-11-01T13:58:28.938Z,79.8
2023-11-01T14:00:53.383Z,79.7
2023-11-01T14:04:35.258Z,79.6
2023-11-01T14:05:48.865Z,79.4
2023-11-01T14:06:57.236Z,79.2
2023-11-01T14:08:02.984Z,79.3
2023-11-01T14:09:27.979Z,79.4
2023-11-01T14:10:41.775Z,79.5
2023-11-01T14:11:51.047Z,79.5
2023-11-01T14:51:27.492Z,79.5
2023-11-01T14:52:34.220Z,76.8
2023-11-01T14:53:40.635Z,76.8
2023-11-01T14:54:52.593Z,76.8
2023-11-01T14:57:18.181Z,76.7
2023-11-01T14:58:22.166Z,76.7
2023-11-01T14:59:36.356Z,76.7
2023-11-01T15:00:44.868Z,76.8
2023-11-01T15:01:53.692Z,76.8
2023-11-01T15:02:57.352Z,76.8
2023-11-01T15:04:01.606Z,76.8
2023-11-01T15:05:07.965Z,76.8
2023-11-01T15:06:09.402Z,76.9
2023-11-01T15:07:10.739Z,76.9
2023-11-01T15:08:11.966Z,77
2023-11-01T15:09:22.077Z,77
2023-11-01T15:10:23.215Z,77.1
2023-11-01T15:11:24.378Z,77.1
2023-11-01T15:12:25.548Z,77.2
2023-11-01T15:13:26.711Z,77.3
2023-11-01T15:14:27.880Z,77.3
2023-11-01T15:15:29.074Z,77.4
2023-11-01T15:16:30.256Z,77.4
2023-11-01T15:17:31.467Z,77.5
2023-11-01T15:18:32.998Z,77.5
2023-11-01T15:19:34.191Z,77.6
2023-11-01T15:20:35.410Z,77.6
2023-11-01T15:21:36.823Z,77.7
2023-11-01T15:22:38.789Z,77.8
2023-11-01T15:23:42.919Z,77.8
2023-11-01T15:24:44.075Z,77.9
2023-11-01T15:25:45.247Z,78
2023-11-01T15:26:46.636Z,78
2023-11-01T15:27:47.851Z,78.1
2023-11-01T15:28:49.035Z,78.1
2023-11-01T15:29:50.279Z,78.2
2023-11-01T15:30:51.437Z,78.2
2023-11-01T15:31:52.652Z,78.3
2023-11-01T15:32:54.191Z,78.3
2023-11-01T15:34:00.435Z,78.4
2023-11-01T15:35:01.620Z,78.4
2023-11-01T15:36:05.409Z,78.5
2023-11-01T15:38:22.834Z,78.6
2023-11-01T15:39:47.130Z,78.7
2023-11-01T15:42:19.807Z,78.8
2023-11-01T15:43:24.156Z,78.9
2023-11-01T15:45:34.327Z,79
2023-11-01T15:46:47.789Z,79.1
2023-11-01T15:47:52.103Z,79.2
2023-11-01T15:51:17.353Z,79.3
2023-11-01T15:52:28.194Z,79.4
2023-11-01T15:53:53.168Z,79.5
2023-11-01T15:54:57.713Z,79.5
2023-11-01T15:56:19.971Z,79.6
2023-11-01T15:57:31.342Z,79.7
2023-11-01T15:58:47.035Z,79.7
2023-11-01T15:59:51.447Z,79.8
2023-11-01T16:01:02.772Z,79.8
2023-11-01T16:02:06.999Z,79.9
2023-11-01T16:03:11.568Z,79.9
2023-11-01T16:04:13.350Z,80
2023-11-01T16:05:21.027Z,80
2023-11-01T16:06:31.518Z,80.1
2023-11-01T16:07:41.174Z,80.1
2023-11-01T16:08:45.625Z,80.2
2023-11-01T16:09:46.794Z,80.2
2023-11-01T16:10:47.940Z,80.3
2023-11-01T16:11:49.128Z,80.3
2023-11-01T16:12:50.293Z,80.3
2023-11-01T16:13:52.941Z,80.3
2023-11-01T16:14:54.160Z,80.4
2023-11-01T16:15:55.556Z,80.4
2023-11-01T16:16:56.699Z,80.5
2023-11-01T16:17:58.051Z,80.5
2023-11-01T16:18:59.377Z,80.5
2023-11-01T16:20:03.787Z,80.6
2023-11-01T16:21:05.110Z,80.6
2023-11-01T16:22:06.267Z,80.6
2023-11-01T16:23:07.450Z,80.7
2023-11-01T16:24:08.684Z,80.7
2023-11-01T16:25:09.851Z,80.7
2023-11-01T16:26:10.992Z,80.7
2023-11-01T16:27:12.209Z,80.8
2023-11-01T16:28:13.369Z,80.8
2023-11-01T16:29:14.525Z,80.8
2023-11-01T16:30:16.028Z,80.9
2023-11-01T16:31:17.489Z,80.9
2023-11-01T16:32:18.659Z,80.9
2023-11-01T16:33:19.892Z,81
2023-11-01T16:34:21.074Z,81
2023-11-01T16:35:22.240Z,81
2023-11-01T16:36:23.407Z,81
2023-11-01T16:37:24.569Z,81
2023-11-01T16:38:27.403Z,81.1
2023-11-01T16:39:28.591Z,81.1
2023-11-01T16:40:29.768Z,81.1
2023-11-01T16:41:30.913Z,81.2
2023-11-01T16:42:32.087Z,81.2